createdAt,value
2019-05-26T00:01:44.372Z,8.9
2019-05-26T00:02:44.443Z,7.1
2019-05-26T00:03:44.471Z,6.8
2019-05-26T00:04:44.478Z,7.6
2019-05-26T00:05:44.509Z,7.8
2019-05-26T00:10:44.709Z,7
2019-05-26T00:11:44.715Z,8.1
2019-05-26T00:12:44.734Z,7.3
2019-05-26T00:13:44.863Z,8.9
2019-05-26T00:14:44.866Z,7.1
2019-05-26T00:15:44.903Z,8.6
2019-05-26T00:16:44.915Z,7.7
2019-05-26T00:23:45.141Z,6.1
2019-05-26T00:24:45.145Z,7
2019-05-26T00:25:45.159Z,8.6
2019-05-26T00:26:45.227Z,8.3
2019-05-26T00:30:45.426Z,9.6
2019-05-26T00:31:45.441Z,8.1
2019-05-26T00:32:45.466Z,7.2
2019-05-26T00:33:45.487Z,7.9
2019-05-26T00:34:45.503Z,7
2019-05-26T00:35:45.518Z,7.9
2019-05-26T00:36:45.541Z,7.6
2019-05-26T00:49:46.281Z,7.8
2019-05-26T00:50:46.230Z,7.1
2019-05-26T00:51:46.332Z,7.2
2019-05-26T00:55:46.421Z,8.3
2019-05-26T00:56:46.521Z,7.3
2019-05-26T01:04:47.065Z,8.3
2019-05-26T01:05:47.150Z,7.8
2019-05-26T01:17:47.794Z,6.7
2019-05-26T01:18:47.897Z,7.7
2019-05-26T01:19:48.110Z,6.7
2019-05-26T01:20:48.007Z,5.2
2019-05-26T01:21:48.023Z,6.8
2019-05-26T01:22:48.104Z,6.4
2019-05-26T01:23:48.173Z,6.1
2019-05-26T01:27:48.386Z,8.6
2019-05-26T01:28:48.447Z,7.3
2019-05-26T01:29:48.486Z,7.6
2019-05-26T01:32:48.634Z,8.5
2019-05-26T01:33:48.630Z,6.6
2019-05-26T01:36:48.794Z,8.4
2019-05-26T01:37:48.800Z,7.1
2019-05-26T01:41:49.294Z,11
2019-05-26T01:42:49.412Z,7.9
2019-05-26T01:43:49.443Z,9.9
2019-05-26T01:51:49.911Z,8
2019-05-26T01:52:50.037Z,8.8
2019-05-26T01:53:50.155Z,8.3
2019-05-26T01:56:50.309Z,9.4
2019-05-26T01:57:50.454Z,8.4
2019-05-26T01:58:50.638Z,8.6
2019-05-26T01:59:50.746Z,10.4
2019-05-26T02:00:51.779Z,10.4
2019-05-26T02:01:50.866Z,6.6
2019-05-26T02:02:50.868Z,11.6
2019-05-26T02:03:50.979Z,10.1
2019-05-26T02:12:51.500Z,10.2
2019-05-26T02:13:51.468Z,9.5
2019-05-26T02:16:52.557Z,7.9
2019-05-26T02:17:51.836Z,9.5
2019-05-26T02:18:51.854Z,12.7
2019-05-26T02:19:51.919Z,9.2
2019-05-26T02:20:51.970Z,10.7
2019-05-26T02:21:52.003Z,10.1
2019-05-26T02:22:52.186Z,11.3
2019-05-26T02:23:52.192Z,11.4
2019-05-26T02:26:52.196Z,10.6
2019-05-26T02:27:52.259Z,9.6
2019-05-26T02:28:52.274Z,9.5
2019-05-26T02:29:52.383Z,9.4
2019-05-26T02:30:52.487Z,9.1
2019-05-26T02:31:52.622Z,12.1
2019-05-26T02:32:53.866Z,10.1
2019-05-26T02:33:52.758Z,11.1
2019-05-26T02:36:53.032Z,12.1
2019-05-26T02:37:53.424Z,9.3
2019-05-26T02:39:01.718Z,12.1
2019-05-26T02:42:54.557Z,11.9
2019-05-26T02:43:53.609Z,11.9
2019-05-26T02:46:53.760Z,12
2019-05-26T02:47:53.873Z,10.6
2019-05-26T02:48:53.988Z,12.6
2019-05-26T02:56:54.481Z,12
2019-05-26T02:57:54.549Z,12.3
2019-05-26T02:58:54.618Z,13.3
2019-05-26T02:59:54.692Z,13.5
2019-05-26T03:00:54.756Z,9.2
2019-05-26T03:02:02.830Z,15.2
2019-05-26T03:02:55.818Z,13.6
2019-05-26T03:03:54.943Z,12.2
2019-05-26T03:06:55.116Z,13.2
2019-05-26T03:07:55.180Z,12
2019-05-26T03:08:55.324Z,14
2019-05-26T03:20:56.305Z,14.5
2019-05-26T03:21:56.360Z,12.2
2019-05-26T03:22:56.423Z,10.9
2019-05-26T03:23:56.477Z,13.2
2019-05-26T03:27:56.791Z,12.9
2019-05-26T03:28:56.910Z,12.4
2019-05-26T03:29:56.999Z,14.2
2019-05-26T03:30:57.115Z,13.7
2019-05-26T03:31:57.164Z,14.9
2019-05-26T03:32:57.162Z,15.3
2019-05-26T03:33:57.167Z,14.2
2019-05-26T03:37:57.230Z,15.2
2019-05-26T03:38:57.228Z,13.9
2019-05-26T03:46:57.388Z,18.200001
2019-05-26T03:47:57.414Z,18.299999
2019-05-26T03:48:57.435Z,14.6
2019-05-26T03:49:57.470Z,16.700001
2019-05-26T03:50:57.535Z,18.4
2019-05-26T03:51:57.564Z,15.5
2019-05-26T03:52:57.586Z,18
2019-05-26T03:53:57.657Z,17.200001
2019-05-26T04:00:57.963Z,16
2019-05-26T04:01:58.172Z,17.799999
2019-05-26T04:02:58.204Z,15.9
2019-05-26T04:03:58.272Z,16.700001
2019-05-26T04:06:58.400Z,20.4
2019-05-26T04:08:03.142Z,19.4
2019-05-26T04:16:58.718Z,18.799999
2019-05-26T04:17:58.722Z,19.299999
2019-05-26T04:18:58.734Z,17
2019-05-26T04:21:58.805Z,18.4
2019-05-26T04:22:58.834Z,18.1
2019-05-26T04:23:58.845Z,20
2019-05-26T04:24:59.876Z,18.200001
2019-05-26T04:25:58.911Z,18.299999
2019-05-26T04:44:59.686Z,21.200001
2019-05-26T04:45:59.728Z,21.200001
2019-05-26T04:46:59.809Z,21.6
2019-05-26T04:47:59.924Z,22.6
2019-05-26T04:48:59.970Z,20.1
2019-05-26T05:52:01.943Z,35.400002
2019-05-26T05:53:01.949Z,31.200001
2019-05-26T05:54:02.083Z,30.200001
2019-05-26T07:58:09.515Z,18.5
2019-05-26T07:59:09.493Z,19.799999
2019-05-26T08:00:10.632Z,19.6
2019-05-26T08:01:09.743Z,18.5
2019-05-26T08:02:09.876Z,19.4
2019-05-26T08:03:10.044Z,18.9
2019-05-26T08:04:09.998Z,18.799999
2019-05-26T08:05:10.174Z,18.4
2019-05-26T08:06:10.127Z,18.200001
2019-05-26T08:07:10.234Z,19.299999
2019-05-26T08:08:12.928Z,17.799999
2019-05-26T08:09:11.561Z,17.9
2019-05-26T08:10:10.557Z,17.200001
2019-05-26T08:11:10.627Z,17.4
2019-05-26T08:12:24.845Z,17.1
2019-05-26T08:14:10.752Z,17.299999
2019-05-26T08:15:10.885Z,17.1
2019-05-26T08:16:11.042Z,16.1
2019-05-26T08:17:11.202Z,15.6
2019-05-26T08:18:11.473Z,15.2
2019-05-26T08:19:11.359Z,15.6
2019-05-26T09:52:29.833Z,8.4
2019-05-26T11:23:32.939Z,4.6
2019-05-26T11:24:33.076Z,5.8
2019-05-26T13:03:52.528Z,5.9
2019-05-26T13:16:20.470Z,4.9
2019-05-26T13:16:35.877Z,4.7
2019-05-26T13:17:35.431Z,5.3
2019-05-26T13:18:34.529Z,5.3
2019-05-26T13:19:34.615Z,4.2
2019-05-26T13:20:34.662Z,4.5
2019-05-26T13:21:35.827Z,4.8
2019-05-26T13:22:35.522Z,4.6
2019-05-26T13:23:36.147Z,5.8
2019-05-26T13:24:34.879Z,7
2019-05-26T13:25:35.020Z,6.8
2019-05-26T13:26:35.050Z,5.2
2019-05-26T13:27:35.187Z,6
2019-05-26T13:28:35.272Z,4.9
2019-05-26T13:29:35.601Z,5.1
2019-05-26T13:30:35.361Z,4.8
2019-05-26T13:34:29.383Z,5.7
2019-05-26T14:08:44.702Z,7
2019-05-26T14:09:44.734Z,5.4
2019-05-26T14:10:44.788Z,4.3
2019-05-26T14:11:44.783Z,4.1
2019-05-26T14:12:44.856Z,4.7
2019-05-26T14:13:44.891Z,5.3
2019-05-26T14:14:44.919Z,4.6
2019-05-26T14:15:44.959Z,4.4
2019-05-26T14:16:44.992Z,6.2
2019-05-26T14:17:45.000Z,5.9
2019-05-26T14:18:45.005Z,7.3
2019-05-26T14:19:45.018Z,7.5
2019-05-26T14:20:45.070Z,27.700001
2019-05-26T14:28:45.237Z,4
2019-05-26T14:29:45.251Z,4.4
2019-05-26T14:30:45.303Z,5.1
2019-05-26T14:31:45.320Z,5.1
2019-05-26T14:32:45.359Z,4.5
2019-05-26T14:33:45.423Z,4.2
2019-05-26T14:42:45.835Z,4.2
2019-05-26T14:43:45.867Z,5.6
2019-05-26T14:44:45.865Z,3.4
2019-05-26T14:45:53.165Z,4.6
2019-05-26T14:46:46.926Z,4.4
2019-05-26T14:47:45.927Z,3.7
2019-05-26T14:54:46.353Z,6.3
2019-05-26T14:55:46.368Z,4.8
2019-05-26T14:56:46.439Z,5.7
2019-05-26T14:57:46.469Z,3.2
2019-05-26T14:58:46.510Z,5.9
2019-05-26T14:59:46.529Z,3.5
2019-05-26T15:00:46.555Z,3.8
2019-05-26T15:01:46.650Z,4.9
2019-05-26T15:02:46.708Z,4.2
2019-05-26T15:03:46.747Z,4.5
2019-05-26T15:04:46.751Z,5.4
2019-05-26T15:05:46.760Z,4.7
2019-05-26T15:06:46.825Z,4
2019-05-26T15:07:46.847Z,5
2019-05-26T15:14:47.084Z,4.4
2019-05-26T15:15:47.109Z,6.3
2019-05-26T15:16:47.144Z,5.1
2019-05-26T15:17:47.177Z,5.4
2019-05-26T15:18:47.210Z,4.6
2019-05-26T15:19:47.222Z,5.6
2019-05-26T15:27:48.004Z,6.9
2019-05-26T15:28:47.525Z,5.4
2019-05-26T15:29:47.584Z,4.5
2019-05-26T15:30:47.684Z,4.3
2019-05-26T15:31:47.763Z,3.9
2019-05-26T15:32:47.846Z,5.4
2019-05-26T15:33:47.908Z,3.8
2019-05-26T15:41:48.418Z,3.4
2019-05-26T15:42:48.556Z,3.8
2019-05-26T15:43:48.724Z,2.9
2019-05-26T15:44:48.658Z,4.8
2019-05-26T15:45:48.740Z,3.3
2019-05-26T15:46:48.815Z,3.1
2019-05-26T15:47:48.916Z,4.9
2019-05-26T15:48:49.026Z,6.4
2019-05-26T15:49:49.047Z,3.8
2019-05-26T15:50:49.098Z,4.7
2019-05-26T15:51:49.158Z,4.6
2019-05-26T15:52:49.308Z,4.2
2019-05-26T15:53:49.363Z,4.2
2019-05-26T15:54:49.405Z,5.3
2019-05-26T16:02:49.780Z,4.3
2019-05-26T16:03:50.380Z,3.3
2019-05-26T16:04:49.953Z,4.3
2019-05-26T16:05:50.005Z,3.6
2019-05-26T16:06:50.062Z,3.5
2019-05-26T16:07:50.088Z,3.8
2019-05-26T16:15:50.626Z,4.8
2019-05-26T16:16:51.501Z,3.7
2019-05-26T16:17:50.637Z,4.8
2019-05-26T16:18:50.837Z,3.9
2019-05-26T16:19:50.688Z,4.5
2019-05-26T16:21:02.306Z,3.5
2019-05-26T16:28:51.231Z,4
2019-05-26T16:29:51.289Z,4
2019-05-26T16:30:51.306Z,3.5
2019-05-26T16:31:51.330Z,3.8
2019-05-26T16:32:51.455Z,5.2
2019-05-26T16:33:51.510Z,3.2
2019-05-26T16:40:51.882Z,3.4
2019-05-26T16:41:51.941Z,3.4
2019-05-26T16:42:52.005Z,6.1
2019-05-26T16:43:52.066Z,6
2019-05-26T16:44:52.129Z,5.2
2019-05-26T16:45:55.870Z,3.1
2019-05-26T16:46:56.299Z,3.6
2019-05-26T16:47:53.466Z,5
2019-05-26T16:48:54.648Z,4
2019-05-26T16:50:52.811Z,3.8
2019-05-26T16:51:52.982Z,4.1
2019-05-26T16:52:54.508Z,3.7
2019-05-26T16:55:52.842Z,4.3
2019-05-26T16:56:52.844Z,4.4
2019-05-26T16:57:52.846Z,3.3
2019-05-26T16:58:52.875Z,4.9
2019-05-26T19:05:00.951Z,4.7
2019-05-26T19:06:01.047Z,4.9
2019-05-26T19:07:01.217Z,5.4
2019-05-26T19:08:01.204Z,7.4
2019-05-26T19:09:01.366Z,6.1
2019-05-26T19:10:01.357Z,5
2019-05-26T19:11:01.452Z,4.8
2019-05-26T19:12:01.537Z,6.2
2019-05-26T19:13:01.657Z,4.9
2019-05-26T19:14:01.864Z,6
2019-05-26T19:15:01.917Z,5.4
2019-05-26T19:16:01.851Z,4.7
2019-05-26T19:17:02.973Z,6.5
2019-05-26T19:18:16.628Z,6.4
2019-05-26T19:20:15.272Z,6.2
2019-05-26T19:22:02.438Z,6
2019-05-26T19:23:02.565Z,4.8
2019-05-26T19:24:02.675Z,4.8
2019-05-26T19:25:02.845Z,5.4
2019-05-26T19:26:02.804Z,5.1
2019-05-26T19:27:02.883Z,7.7
2019-05-26T21:20:10.876Z,3.4
2019-05-26T21:21:11.065Z,4
2019-05-26T21:22:11.056Z,3.9
2019-05-26T21:23:11.065Z,3.7
2019-05-26T21:24:11.225Z,5
2019-05-26T21:25:11.232Z,4.6
2019-05-26T21:26:11.390Z,4.6
2019-05-26T21:27:11.383Z,6.3
2019-05-26T21:28:11.412Z,3.2
2019-05-26T21:29:11.436Z,4.6
2019-05-26T21:30:11.392Z,5.9
2019-05-26T21:31:11.520Z,4.5
2019-05-26T21:32:11.697Z,4.9
2019-05-26T21:33:11.695Z,6.5
2019-05-26T21:34:11.702Z,5.2
2019-05-26T21:35:11.649Z,4.6
2019-05-26T21:36:12.751Z,5.1
2019-05-26T21:37:11.880Z,5.4
2019-05-26T21:38:12.039Z,4.2
2019-05-26T21:39:12.048Z,5.8
2019-05-26T21:40:12.079Z,4.9
2019-05-26T21:41:12.181Z,6.9
2019-05-26T21:42:15.713Z,4.9
2019-05-26T21:44:12.226Z,5.4
2019-05-26T21:45:12.198Z,5.5
2019-05-26T21:46:12.373Z,5.5
2019-05-26T21:47:12.461Z,6.4
2019-05-26T21:48:12.517Z,6.1
2019-05-26T21:49:12.541Z,5.2
2019-05-26T21:50:12.577Z,6.5
2019-05-26T21:51:12.625Z,8.8
2019-05-26T21:52:12.664Z,4.6
2019-05-26T21:53:12.703Z,4.1
2019-05-26T21:54:12.812Z,6.1
2019-05-26T21:55:12.862Z,5.8
2019-05-26T21:56:12.910Z,4.9
2019-05-26T21:57:12.951Z,9.5
2019-05-26T21:58:12.927Z,8.5
2019-05-26T22:52:17.717Z,5.2
2019-05-26T22:53:17.427Z,5.2
2019-05-26T22:54:16.591Z,5.6
2019-05-26T22:55:16.582Z,4.5
2019-05-26T22:56:16.759Z,4.3
2019-05-26T22:57:16.718Z,5.3
2019-05-26T22:58:16.867Z,4.5
2019-05-26T22:59:17.987Z,4.4
2019-05-26T23:00:16.972Z,4
2019-05-26T23:01:17.170Z,4.4
2019-05-26T23:02:17.161Z,4.2
2019-05-26T23:03:17.177Z,5.7
2019-05-26T23:04:17.147Z,4.3
2019-05-26T23:05:17.303Z,4.1
2019-05-26T23:06:17.481Z,4.8
2019-05-26T23:07:17.507Z,5.1
2019-05-26T23:08:17.515Z,4.9
2019-05-26T23:09:17.504Z,4.9
2019-05-26T23:10:17.650Z,6.4
2019-05-26T23:11:17.640Z,6.3
2019-05-26T23:12:17.846Z,5.7
2019-05-26T23:13:17.824Z,4.5
2019-05-26T23:14:17.984Z,4.7
2019-05-26T23:19:19.978Z,6.6
2019-05-26T23:20:19.545Z,4.1
2019-05-26T23:21:18.517Z,6.7
2019-05-26T23:22:18.680Z,3.7
2019-05-26T23:23:18.658Z,5
2019-05-26T23:24:18.783Z,4.9
2019-05-26T23:28:19.389Z,4.3
2019-05-26T23:29:19.383Z,6.2
2019-05-26T23:30:19.356Z,5.9
2019-05-26T23:31:19.464Z,5
2019-05-26T23:32:19.629Z,5.4
2019-05-26T23:33:19.582Z,5.7
2019-05-26T23:34:19.719Z,7.1
2019-05-26T23:35:19.889Z,6.8
2019-05-26T23:36:20.008Z,6.2
2019-05-26T23:37:20.211Z,6.7
2019-05-26T23:38:21.175Z,6.4
2019-05-26T23:39:20.321Z,5.8
2019-05-26T23:40:20.316Z,6.9
2019-05-26T23:41:20.291Z,6.4
2019-05-26T23:42:20.455Z,6.2
2019-05-26T23:43:21.102Z,5.2
2019-05-26T23:44:20.824Z,5
2019-05-26T23:45:20.889Z,5.4
2019-05-26T23:48:20.887Z,3.7
2019-05-26T23:49:21.009Z,5
2019-05-26T23:50:22.107Z,5.2
2019-05-26T23:51:21.252Z,5.8
2019-05-26T23:59:21.822Z,6.5
